createdAt,value
2022-10-29T00:01:54.300Z,7.20
2022-10-29T00:11:58.045Z,7.00
2022-10-29T00:22:02.210Z,7.00
2022-10-29T00:32:06.118Z,6.70
2022-10-29T00:42:15.657Z,6.70
2022-10-29T00:52:21.994Z,6.60
2022-10-29T01:02:26.903Z,6.30
2022-10-29T01:12:57.874Z,6.70
2022-10-29T01:23:24.188Z,6.30
2022-10-29T01:33:35.409Z,5.70
2022-10-29T01:43:51.615Z,5.90
2022-10-29T01:53:56.148Z,6.40
2022-10-29T02:04:24.992Z,5.20
2022-10-29T02:14:40.947Z,5.50
2022-10-29T02:24:44.692Z,6.40
2022-10-29T02:34:48.137Z,5.50
2022-10-29T02:44:51.749Z,4.40
2022-10-29T02:54:55.705Z,4.70
2022-10-29T03:04:59.255Z,5.00
2022-10-29T03:15:02.828Z,4.40
2022-10-29T03:25:07.226Z,4.10
2022-10-29T03:35:12.587Z,6.90
2022-10-29T03:45:16.449Z,5.40
2022-10-29T03:55:19.954Z,5.60
2022-10-29T04:05:24.026Z,9.90
2022-10-29T04:15:27.688Z,5.30
2022-10-29T04:35:55.281Z,4.00
2022-10-29T04:46:00.275Z,4.10
2022-10-29T04:56:06.023Z,3.40
2022-10-29T05:06:09.949Z,4.20
2022-10-29T05:16:13.725Z,5.00
2022-10-29T05:26:17.618Z,5.00
2022-10-29T05:36:21.481Z,4.20
2022-10-29T05:46:25.142Z,6.30
2022-10-29T05:56:29.034Z,5.00
2022-10-29T06:06:32.552Z,4.70
2022-10-29T06:16:36.920Z,4.80
2022-10-29T06:26:41.356Z,5.90
2022-10-29T06:36:45.200Z,8.90
2022-10-29T06:46:48.970Z,8.70
2022-10-29T06:56:52.748Z,8.90
2022-10-29T07:06:56.287Z,8.10
2022-10-29T07:17:01.090Z,9.90
2022-10-29T07:27:07.842Z,9.50
2022-10-29T07:37:11.554Z,10.00
2022-10-29T07:47:15.569Z,7.70
2022-10-29T07:57:19.125Z,7.40
2022-10-29T08:07:23.197Z,6.60
2022-10-29T08:17:30.342Z,4.90
2022-10-29T08:27:35.461Z,5.20
2022-10-29T08:37:44.647Z,4.40
2022-10-29T08:47:54.847Z,4.60
2022-10-29T08:58:20.218Z,4.60
2022-10-29T09:08:45.705Z,4.30
2022-10-29T09:19:21.175Z,3.70
2022-10-29T09:29:41.889Z,3.10
2022-10-29T09:39:48.776Z,2.90
2022-10-29T09:50:08.589Z,2.70
2022-10-29T10:00:46.926Z,2.50
2022-10-29T10:11:06.813Z,2.80
2022-10-29T10:21:14.516Z,2.70
2022-10-29T10:31:18.726Z,3.30
2022-10-29T10:41:34.468Z,2.50
2022-10-29T10:51:43.437Z,2.50
2022-10-29T11:01:51.227Z,3.30
2022-10-29T11:12:06.667Z,3.20
2022-10-29T11:22:39.280Z,3.70
2022-10-29T11:33:20.824Z,2.90
2022-10-29T11:43:25.299Z,3.30
2022-10-29T11:53:33.280Z,3.60
2022-10-29T12:04:15.853Z,3.80
2022-10-29T12:14:45.885Z,3.70
2022-10-29T12:25:08.171Z,3.60
2022-10-29T12:35:18.299Z,3.60
2022-10-29T12:46:19.482Z,4.00
2022-10-29T12:56:17.789Z,4.10
2022-10-29T13:06:42.825Z,4.40
2022-10-29T13:16:50.221Z,4.00
2022-10-29T13:27:10.052Z,4.40
2022-10-29T13:37:48.730Z,4.10
2022-10-29T13:47:52.566Z,6.50
2022-10-29T13:58:22.710Z,5.90
2022-10-29T14:09:08.205Z,7.30
2022-10-29T14:19:22.051Z,7.50
2022-10-29T14:29:26.282Z,6.90
2022-10-29T14:39:55.594Z,7.60
2022-10-29T14:50:07.203Z,9.60
2022-10-29T15:00:27.733Z,7.30
2022-10-29T15:10:31.762Z,6.20
2022-10-29T15:20:42.067Z,11.60
2022-10-29T15:30:46.261Z,11.40
2022-10-29T15:41:09.829Z,12.20
2022-10-29T15:51:13.897Z,10.90
2022-10-29T16:01:17.795Z,20.40
2022-10-29T16:11:22.940Z,14.60
2022-10-29T16:21:26.831Z,12.20
2022-10-29T16:31:30.879Z,11.50
2022-10-29T16:41:35.577Z,16.70
2022-10-29T16:51:39.427Z,14.40
2022-10-29T17:01:44.022Z,21.40
2022-10-29T17:11:47.975Z,21.60
2022-10-29T17:21:52.034Z,20.90
2022-10-29T17:31:56.670Z,29.80
2022-10-29T17:42:01.646Z,25.80
2022-10-29T17:52:11.600Z,20.00
2022-10-29T18:02:16.969Z,22.20
2022-10-29T18:12:22.510Z,40.90
2022-10-29T18:22:26.645Z,22.40
2022-10-29T18:32:30.610Z,22.50
2022-10-29T18:42:35.971Z,17.80
2022-10-29T18:52:42.048Z,25.40
2022-10-29T19:02:47.045Z,26.70
2022-10-29T19:12:51.480Z,22.10
2022-10-29T19:22:57.791Z,36.80
2022-10-29T19:33:07.720Z,31.20
2022-10-29T19:43:12.868Z,31.10
2022-10-29T19:53:17.137Z,31.00
2022-10-29T20:03:24.203Z,31.90
2022-10-29T20:13:33.099Z,27.80
2022-10-29T20:23:38.670Z,24.30
2022-10-29T20:33:44.081Z,24.90
2022-10-29T20:43:55.291Z,22.90
2022-10-29T20:53:59.691Z,25.90
2022-10-29T21:04:03.984Z,23.80
2022-10-29T21:14:07.959Z,23.90
2022-10-29T21:24:11.815Z,26.20
2022-10-29T21:34:16.343Z,27.10
2022-10-29T21:44:20.682Z,28.30
2022-10-29T21:54:27.432Z,26.20
2022-10-29T22:04:32.626Z,25.00
2022-10-29T22:14:36.384Z,25.80
2022-10-29T22:24:40.052Z,26.70
2022-10-29T22:34:43.513Z,24.90
2022-10-29T22:44:47.174Z,28.00
2022-10-29T22:54:50.965Z,26.40
2022-10-29T23:04:54.514Z,30.90
2022-10-29T23:14:58.285Z,29.00
2022-10-29T23:25:01.945Z,29.90
2022-10-29T23:35:05.924Z,26.50
2022-10-29T23:45:10.303Z,26.60
2022-10-29T23:55:14.081Z,25.20
